Aérodrome :
LOGIN :

S'inscrire | Disclaimer

   EN    FR    IT 

 










Légende :    VFR   VFR Marginal   IFR   IFR Intensif   IFR Très Intensif
Visi : 
Plafond : 
>= 8 km
>= 3000ft
5 à 8 km
1000 à 3000 ft
1500m à 5 km
500 à 1000 ft
800 à 1500m
200 à 500 ft
< 800m
< 200 ft
Symboles :   Orages  Brouillard  Fortes neiges  Fortes précipitations  Vent > 20 kt
SIGMETs :   Divers  Orages  Givrage  Turbulence  Onde Orograph.  Cendres Volcan.






- Altitude de l'aérodrome : 1682 ft
- Code IATA : VIT


LEVT - Vitoria Gasteiz

DERNIER METAR :
  • 210000Z VRB01KT 9999 BKN027 05/04 Q1006

METARs EXPIRÉS :
  • 202330Z 27005KT 9999 BKN030 05/04 Q1006
  • 202300Z 25005KT 210V280 9999 BKN030 06/04 Q1006
  • 202230Z 24005KT 210V290 9999 BKN030 06/04 Q1006
  • 202200Z 23004KT 200V270 9999 BKN030 06/04 Q1006
  • 202130Z 23004KT 9999 SCT026 BKN035 06/04 Q1006

TAF TAF LEVT
Valide du 21 à 00h jusqu'au 22 à 00h UTC


202300Z 2100/2124 24007KT 9999 FEW030 SCT050 TX09/2113Z TN01/2103Z
PROB40
TEMPO 2100/2108 3000 BR
PROB30
TEMPO 2100/2107 1500 BCFG
PROB40
TEMPO 2110/2115 22015G25KT



MET'MAP, la Météo Aéronautique d'un coup d'oeil ! - Copyright ORBIFLY Décembre 2007 - Disclaimer

ORBIFLY MET'MAP TEAM :

Programmation & Développement : Alexandra Zaïnal
Conception & Développement : Baudouin d'Aumeries
Co-Programmation & Développement : Marc-Olivier Méhu
Soutien technique & logistique : Manuel Goepfert

Contact : metmap@orbifly.com




SOURCES & CREDITS :

   NOAA